createdAt,value
2022-12-19T00:00:42.751Z,56.00
2022-12-19T00:01:42.795Z,52.40
2022-12-19T00:02:42.861Z,50.60
2022-12-19T00:03:42.732Z,52.80
2022-12-19T00:04:42.706Z,54.60
2022-12-19T00:05:42.778Z,53.60
2022-12-19T00:06:43.951Z,59.50
2022-12-19T00:07:42.718Z,59.50
2022-12-19T00:08:42.698Z,63.10
2022-12-19T00:09:42.674Z,57.50
2022-12-19T00:10:42.670Z,54.50
2022-12-19T00:11:42.662Z,56.70
2022-12-19T00:12:42.670Z,54.80
2022-12-19T00:13:42.643Z,52.20
2022-12-19T00:14:42.635Z,51.30
2022-12-19T00:15:42.628Z,53.80
2022-12-19T00:16:42.670Z,50.50
2022-12-19T00:17:42.631Z,52.20
2022-12-19T00:18:42.635Z,52.20
2022-12-19T00:19:42.633Z,51.20
2022-12-19T00:20:42.612Z,51.30
2022-12-19T00:21:42.683Z,56.70
2022-12-19T00:22:42.598Z,54.10
2022-12-19T00:23:42.582Z,57.30
2022-12-19T00:24:42.573Z,60.30
2022-12-19T00:25:42.631Z,53.70
2022-12-19T00:26:42.560Z,55.80
2022-12-19T00:27:42.568Z,55.40
2022-12-19T00:28:42.557Z,53.60
2022-12-19T00:29:42.543Z,52.50
2022-12-19T00:30:42.575Z,54.00
2022-12-19T00:31:42.582Z,55.50
2022-12-19T00:32:42.531Z,50.90
2022-12-19T00:33:43.532Z,53.10
2022-12-19T00:34:42.512Z,53.40
2022-12-19T00:35:42.533Z,50.10
2022-12-19T00:36:42.498Z,55.40
2022-12-19T00:37:49.323Z,51.30
2022-12-19T00:38:43.499Z,50.10
2022-12-19T00:39:42.488Z,49.40
2022-12-19T00:40:42.483Z,47.60
2022-12-19T00:41:42.721Z,47.40
2022-12-19T00:42:42.461Z,48.50
2022-12-19T00:43:42.462Z,48.70
2022-12-19T00:44:42.444Z,50.20
2022-12-19T00:45:42.514Z,53.90
2022-12-19T00:46:42.476Z,54.70
2022-12-19T00:47:42.442Z,59.40
2022-12-19T00:48:42.428Z,55.60
2022-12-19T00:49:42.442Z,53.70
2022-12-19T00:50:42.425Z,53.80
2022-12-19T00:51:42.414Z,54.70
2022-12-19T00:52:42.419Z,52.70
2022-12-19T00:53:42.466Z,56.80
2022-12-19T00:54:42.439Z,57.80
2022-12-19T00:55:42.382Z,53.70
2022-12-19T00:56:42.385Z,54.70
2022-12-19T00:57:42.362Z,55.10
2022-12-19T00:58:46.765Z,54.00
2022-12-19T00:59:43.359Z,52.30
2022-12-19T01:00:42.425Z,51.40
2022-12-19T01:01:42.482Z,52.50
2022-12-19T01:02:42.495Z,51.90
2022-12-19T01:03:58.059Z,55.20
2022-12-19T01:04:43.341Z,54.40
2022-12-19T01:05:42.326Z,57.00
2022-12-19T01:06:42.310Z,57.70
2022-12-19T01:07:42.311Z,54.50
2022-12-19T01:08:42.298Z,51.90
2022-12-19T01:09:42.368Z,52.70
2022-12-19T01:10:42.295Z,50.00
2022-12-19T01:11:42.298Z,51.10
2022-12-19T01:12:42.264Z,50.00
2022-12-19T01:13:42.253Z,55.50
2022-12-19T01:14:42.266Z,54.10
2022-12-19T01:15:42.248Z,52.30
2022-12-19T01:16:42.339Z,55.30
2022-12-19T01:17:44.418Z,54.10
2022-12-19T01:18:42.244Z,56.20
2022-12-19T01:19:44.613Z,53.00
2022-12-19T01:20:42.233Z,52.90
2022-12-19T01:21:42.212Z,52.50
2022-12-19T01:22:42.205Z,50.80
2022-12-19T01:23:42.208Z,52.80
2022-12-19T01:24:42.199Z,51.30
2022-12-19T01:25:45.894Z,49.40
2022-12-19T01:26:42.167Z,50.70
2022-12-19T01:27:42.182Z,53.70
2022-12-19T01:28:42.173Z,52.80
2022-12-19T01:29:52.464Z,52.90
2022-12-19T01:30:42.144Z,51.80
2022-12-19T01:31:42.202Z,56.30
2022-12-19T01:32:42.133Z,56.60
2022-12-19T01:33:42.122Z,59.90
2022-12-19T01:34:42.119Z,60.00
2022-12-19T01:35:42.122Z,56.80
2022-12-19T01:36:42.111Z,59.20
2022-12-19T01:37:42.122Z,57.90
2022-12-19T01:38:42.096Z,54.90
2022-12-19T01:39:42.090Z,63.60
2022-12-19T01:40:42.102Z,54.50
2022-12-19T01:41:42.151Z,57.30
2022-12-19T01:42:42.063Z,62.20
2022-12-19T01:43:42.063Z,59.00
2022-12-19T01:44:42.060Z,59.90
2022-12-19T01:45:45.839Z,56.20
2022-12-19T01:46:42.127Z,60.70
2022-12-19T01:47:42.059Z,57.90
2022-12-19T01:48:42.030Z,59.90
2022-12-19T01:49:42.031Z,55.10
2022-12-19T01:50:51.463Z,54.50
2022-12-19T01:51:42.006Z,59.40
2022-12-19T01:52:42.009Z,58.30
2022-12-19T01:53:49.030Z,63.10
2022-12-19T01:54:42.998Z,63.10
2022-12-19T01:55:41.995Z,69.20
2022-12-19T01:56:41.967Z,66.10
2022-12-19T01:57:42.012Z,60.30
2022-12-19T01:58:41.934Z,61.10
2022-12-19T01:59:41.929Z,57.60
2022-12-19T02:00:41.946Z,53.40
2022-12-19T02:01:51.172Z,49.30
2022-12-19T02:02:43.009Z,52.30
2022-12-19T02:03:41.906Z,60.00
2022-12-19T02:04:41.901Z,72.40
2022-12-19T02:05:41.887Z,80.40
2022-12-19T02:06:41.900Z,70.00
2022-12-19T02:07:41.902Z,66.00
2022-12-19T02:08:41.919Z,57.50
2022-12-19T02:09:41.864Z,53.70
2022-12-19T02:10:41.858Z,55.80
2022-12-19T02:11:41.848Z,56.90
2022-12-19T02:12:41.842Z,52.40
2022-12-19T02:13:41.861Z,59.50
2022-12-19T02:14:41.832Z,58.10
2022-12-19T02:15:41.840Z,59.60
2022-12-19T02:16:41.820Z,55.70
2022-12-19T02:17:41.815Z,56.90
2022-12-19T02:18:41.827Z,56.40
2022-12-19T02:19:41.826Z,59.70
2022-12-19T02:20:41.792Z,55.50
2022-12-19T02:21:41.802Z,54.90
2022-12-19T02:22:41.779Z,59.40
2022-12-19T02:23:41.786Z,53.90
2022-12-19T02:24:41.770Z,55.50
2022-12-19T02:25:41.785Z,55.40
2022-12-19T02:26:41.763Z,53.90
2022-12-19T02:27:41.755Z,56.00
2022-12-19T02:28:41.751Z,56.80
2022-12-19T02:29:41.826Z,59.50
2022-12-19T02:30:41.736Z,56.00
2022-12-19T02:31:41.797Z,52.60
2022-12-19T02:32:41.727Z,52.70
2022-12-19T02:33:41.715Z,48.70
2022-12-19T02:34:44.575Z,51.10
2022-12-19T02:35:41.718Z,50.90
2022-12-19T02:36:43.458Z,48.70
2022-12-19T02:37:41.705Z,45.50
2022-12-19T02:38:41.696Z,47.20
2022-12-19T02:39:41.708Z,49.10
2022-12-19T02:40:41.689Z,49.80
2022-12-19T02:41:41.682Z,47.60
2022-12-19T02:42:41.662Z,55.40
2022-12-19T02:43:41.676Z,51.00
2022-12-19T02:44:41.652Z,51.20
2022-12-19T02:45:41.820Z,49.00
2022-12-19T02:46:41.661Z,48.40
2022-12-19T02:47:41.651Z,46.60
2022-12-19T02:48:41.637Z,47.40
2022-12-19T02:49:41.622Z,45.90
2022-12-19T02:50:41.624Z,45.90
2022-12-19T02:51:41.627Z,45.60
2022-12-19T02:52:41.607Z,46.90
2022-12-19T02:53:41.604Z,44.70
2022-12-19T02:54:44.962Z,45.90
2022-12-19T02:55:41.614Z,45.40
2022-12-19T02:56:41.598Z,43.80
2022-12-19T02:57:41.584Z,46.90
2022-12-19T02:58:41.617Z,50.10
2022-12-19T02:59:41.594Z,46.90
2022-12-19T03:00:41.564Z,44.80
2022-12-19T03:01:41.838Z,48.00
2022-12-19T03:02:41.731Z,45.20
2022-12-19T03:03:41.604Z,49.30
2022-12-19T03:04:41.554Z,45.20
2022-12-19T03:05:41.534Z,47.40
2022-12-19T03:06:41.539Z,49.40
2022-12-19T03:07:41.530Z,47.90
2022-12-19T03:08:41.514Z,47.40
2022-12-19T03:09:41.538Z,48.50
2022-12-19T03:10:41.510Z,48.90
2022-12-19T03:11:41.527Z,48.50
2022-12-19T03:12:41.506Z,48.70
2022-12-19T03:13:41.494Z,49.20
2022-12-19T03:14:41.487Z,49.10
2022-12-19T03:15:41.478Z,50.00
2022-12-19T03:16:41.571Z,47.80
2022-12-19T03:17:41.549Z,50.90
2022-12-19T03:18:41.454Z,51.40
2022-12-19T03:19:41.461Z,50.60
2022-12-19T03:20:41.448Z,46.40
2022-12-19T03:21:41.454Z,49.40
2022-12-19T03:22:41.446Z,46.20
2022-12-19T03:23:41.430Z,44.50
2022-12-19T03:24:41.430Z,44.20
2022-12-19T03:25:41.419Z,44.10
2022-12-19T03:26:41.404Z,45.30
2022-12-19T03:27:41.408Z,45.50
2022-12-19T03:28:41.414Z,44.00
2022-12-19T03:29:41.378Z,44.30
2022-12-19T03:30:41.443Z,47.40
2022-12-19T03:31:41.388Z,47.10
2022-12-19T03:32:41.371Z,45.40
2022-12-19T03:33:41.440Z,44.30
2022-12-19T03:34:41.382Z,44.60
2022-12-19T03:35:41.349Z,50.70
2022-12-19T03:36:41.347Z,47.30
2022-12-19T03:37:41.337Z,46.60
2022-12-19T03:38:41.346Z,50.10
2022-12-19T03:39:41.334Z,47.60
2022-12-19T03:40:41.336Z,45.80
2022-12-19T03:41:41.316Z,44.60
2022-12-19T03:42:41.312Z,47.10
2022-12-19T03:43:41.299Z,46.10
2022-12-19T03:44:41.289Z,44.20
2022-12-19T03:45:41.356Z,46.20
2022-12-19T03:46:41.285Z,42.60
2022-12-19T03:47:41.292Z,45.30
2022-12-19T03:48:41.263Z,44.60
2022-12-19T03:49:41.346Z,45.30
2022-12-19T03:50:41.280Z,44.50
2022-12-19T03:51:41.250Z,46.90
2022-12-19T03:52:41.253Z,46.00
2022-12-19T03:53:41.231Z,46.70
2022-12-19T03:54:41.256Z,44.20
2022-12-19T03:55:41.236Z,47.50
2022-12-19T03:56:41.217Z,44.90
2022-12-19T03:57:41.250Z,44.30
2022-12-19T03:58:41.209Z,43.40
2022-12-19T03:59:41.193Z,43.70
2022-12-19T04:00:41.189Z,46.30
2022-12-19T04:01:41.277Z,46.60
2022-12-19T04:02:41.200Z,43.60
2022-12-19T04:03:41.261Z,46.20
2022-12-19T04:04:41.175Z,46.40
2022-12-19T04:05:41.248Z,45.70
2022-12-19T04:06:41.160Z,44.30
2022-12-19T04:07:41.189Z,44.20
2022-12-19T04:08:41.161Z,44.40
2022-12-19T04:09:41.145Z,48.10
2022-12-19T04:10:41.127Z,46.10
2022-12-19T04:11:41.132Z,43.60
2022-12-19T04:12:41.153Z,45.20
2022-12-19T04:13:41.109Z,46.40
2022-12-19T04:14:41.121Z,46.40
2022-12-19T04:15:41.132Z,45.50
2022-12-19T04:16:41.083Z,45.50
2022-12-19T04:17:41.086Z,44.20
2022-12-19T04:18:41.100Z,44.20
2022-12-19T04:19:42.673Z,44.40
2022-12-19T04:20:41.072Z,45.10
2022-12-19T04:21:41.145Z,47.30
2022-12-19T04:22:41.060Z,45.00
2022-12-19T04:23:41.053Z,47.10
2022-12-19T04:24:41.039Z,46.30
2022-12-19T04:25:41.065Z,45.60
2022-12-19T04:26:41.031Z,45.60
2022-12-19T04:27:41.029Z,45.40
2022-12-19T04:28:41.014Z,45.80
2022-12-19T04:29:41.007Z,45.80
2022-12-19T04:30:41.021Z,46.60
2022-12-19T04:31:41.007Z,46.10
2022-12-19T04:32:40.995Z,44.20
2022-12-19T04:33:40.981Z,47.30
2022-12-19T04:34:42.974Z,46.00
2022-12-19T04:35:40.971Z,46.70
2022-12-19T04:36:40.981Z,45.10
2022-12-19T04:37:41.024Z,46.50
2022-12-19T04:38:40.956Z,47.80
2022-12-19T04:39:40.945Z,46.80
2022-12-19T04:40:41.828Z,46.10
2022-12-19T04:41:40.939Z,47.80
2022-12-19T04:42:40.933Z,45.80
2022-12-19T04:43:40.911Z,48.90
2022-12-19T04:44:40.904Z,44.50
2022-12-19T04:45:40.898Z,45.30
2022-12-19T04:46:41.001Z,44.10
2022-12-19T04:47:40.885Z,43.10
2022-12-19T04:48:40.903Z,44.90
2022-12-19T04:49:40.877Z,46.00
2022-12-19T04:50:40.884Z,42.40
2022-12-19T04:51:40.857Z,44.50
2022-12-19T04:52:40.855Z,43.40
2022-12-19T04:53:40.933Z,45.50
2022-12-19T04:54:40.838Z,42.60
2022-12-19T04:55:40.837Z,43.90
2022-12-19T04:56:40.846Z,43.60
2022-12-19T04:57:40.821Z,44.90
2022-12-19T04:58:40.837Z,45.50
2022-12-19T04:59:40.808Z,47.10
2022-12-19T05:00:40.794Z,43.30
2022-12-19T05:01:40.948Z,44.70
2022-12-19T05:02:40.960Z,45.40
2022-12-19T05:03:40.875Z,46.10
2022-12-19T05:04:40.798Z,46.30
2022-12-19T05:05:40.788Z,41.90
2022-12-19T05:06:40.768Z,43.40
2022-12-19T05:07:40.753Z,44.80
2022-12-19T05:08:40.760Z,43.90
2022-12-19T05:09:40.823Z,41.50
2022-12-19T05:10:40.732Z,46.00
2022-12-19T05:11:40.731Z,46.00
2022-12-19T05:12:40.721Z,42.30
2022-12-19T05:13:40.715Z,43.60
2022-12-19T05:14:40.743Z,45.50
2022-12-19T05:15:40.744Z,47.50
2022-12-19T05:16:40.687Z,44.80
2022-12-19T05:17:40.686Z,42.80
2022-12-19T05:18:40.684Z,45.40
2022-12-19T05:19:40.700Z,44.60
2022-12-19T05:20:40.664Z,43.70
2022-12-19T05:21:40.682Z,42.80
2022-12-19T05:22:40.662Z,43.90
2022-12-19T05:23:40.658Z,44.90
2022-12-19T05:24:40.648Z,46.10
2022-12-19T05:25:40.741Z,47.90
2022-12-19T05:26:40.632Z,42.40
2022-12-19T05:27:40.625Z,43.40
2022-12-19T05:28:40.611Z,42.30
2022-12-19T05:29:40.630Z,44.20
2022-12-19T05:30:40.609Z,45.90
2022-12-19T05:31:40.681Z,44.10
2022-12-19T05:32:40.583Z,44.20
2022-12-19T05:33:40.595Z,42.80
2022-12-19T05:34:40.572Z,45.10
2022-12-19T05:35:40.588Z,42.90
2022-12-19T05:36:40.567Z,48.20
2022-12-19T05:37:40.566Z,45.60
2022-12-19T05:38:40.555Z,50.70
2022-12-19T05:39:40.546Z,48.60
2022-12-19T05:40:40.543Z,48.40
2022-12-19T05:41:40.631Z,46.80
2022-12-19T05:42:40.520Z,47.80
2022-12-19T05:43:40.514Z,50.10
2022-12-19T05:44:40.532Z,46.90
2022-12-19T05:45:40.505Z,51.20
2022-12-19T05:46:40.525Z,47.40
2022-12-19T05:47:40.497Z,47.60
2022-12-19T05:48:40.487Z,49.90
2022-12-19T05:49:40.479Z,52.80
2022-12-19T05:50:40.497Z,52.70
2022-12-19T05:51:40.466Z,49.00
2022-12-19T05:52:40.453Z,48.20
2022-12-19T05:53:40.458Z,46.10
2022-12-19T05:54:40.449Z,47.30
2022-12-19T05:55:40.453Z,47.70
2022-12-19T05:56:40.456Z,54.70
2022-12-19T05:57:40.538Z,56.50
2022-12-19T05:58:40.421Z,61.30
2022-12-19T05:59:40.412Z,70.50
2022-12-19T06:00:40.412Z,60.60
2022-12-19T06:01:40.474Z,67.30
2022-12-19T06:02:40.570Z,61.70
2022-12-19T06:03:40.438Z,69.20
2022-12-19T06:04:40.408Z,61.40
2022-12-19T06:05:40.393Z,58.20
2022-12-19T06:06:40.369Z,59.60
2022-12-19T06:07:40.372Z,65.40
2022-12-19T06:08:40.364Z,60.60
2022-12-19T06:09:40.363Z,58.90
2022-12-19T06:10:40.365Z,57.40
2022-12-19T06:11:40.344Z,58.20
2022-12-19T06:12:40.340Z,62.20
2022-12-19T06:13:40.416Z,58.40
2022-12-19T06:14:40.329Z,52.90
2022-12-19T06:15:40.315Z,55.20
2022-12-19T06:16:40.340Z,57.20
2022-12-19T06:17:40.325Z,52.10
2022-12-19T06:18:44.302Z,52.30
2022-12-19T06:19:40.296Z,49.70
2022-12-19T06:20:40.301Z,51.90
2022-12-19T06:21:47.959Z,50.30
2022-12-19T06:22:40.272Z,50.50
2022-12-19T06:23:40.298Z,48.80
2022-12-19T06:24:40.255Z,50.20
2022-12-19T06:25:40.255Z,50.80
2022-12-19T06:26:40.239Z,48.60
2022-12-19T06:27:40.242Z,51.40
2022-12-19T06:28:40.259Z,48.20
2022-12-19T06:29:40.326Z,52.00
2022-12-19T06:30:40.224Z,47.70
2022-12-19T06:31:40.284Z,51.40
2022-12-19T06:32:40.208Z,51.80
2022-12-19T06:33:40.212Z,52.30
2022-12-19T06:35:03.152Z,56.80
2022-12-19T06:35:41.190Z,46.40
2022-12-19T06:36:40.174Z,48.30
2022-12-19T06:37:40.176Z,48.50
2022-12-19T06:38:40.162Z,47.10
2022-12-19T06:39:40.185Z,49.10
2022-12-19T06:40:40.148Z,51.30
2022-12-19T06:41:40.148Z,50.00
2022-12-19T06:42:40.126Z,48.30
2022-12-19T06:43:40.122Z,49.00
2022-12-19T06:44:40.119Z,50.80
2022-12-19T06:45:40.269Z,47.90
2022-12-19T06:46:40.096Z,48.20
2022-12-19T06:47:40.106Z,49.70
2022-12-19T06:48:40.089Z,46.10
2022-12-19T06:49:40.092Z,48.30
2022-12-19T06:50:40.090Z,50.10
2022-12-19T06:51:40.112Z,50.40
2022-12-19T06:52:40.068Z,47.30
2022-12-19T06:53:40.065Z,50.30
2022-12-19T06:54:40.061Z,50.30
2022-12-19T06:55:40.055Z,51.10
2022-12-19T06:56:40.068Z,47.60
2022-12-19T06:57:40.061Z,50.10
2022-12-19T06:58:40.029Z,56.30
2022-12-19T06:59:40.024Z,55.80
2022-12-19T07:00:40.054Z,54.90
2022-12-19T07:01:40.558Z,61.80
2022-12-19T07:02:40.138Z,54.80
2022-12-19T07:03:40.014Z,55.80
2022-12-19T07:04:40.011Z,51.60
2022-12-19T07:05:39.997Z,53.60
2022-12-19T07:06:43.476Z,56.20
2022-12-19T07:07:41.009Z,55.10
2022-12-19T07:08:39.972Z,51.90
2022-12-19T07:09:39.988Z,54.40
2022-12-19T07:10:40.013Z,55.70
2022-12-19T07:11:39.960Z,60.90
2022-12-19T07:12:39.944Z,56.30
2022-12-19T07:13:39.949Z,52.20
2022-12-19T07:14:39.945Z,53.10
2022-12-19T07:15:39.959Z,53.90
2022-12-19T07:16:39.991Z,51.10
2022-12-19T07:17:40.056Z,50.90
2022-12-19T07:18:39.907Z,52.60
2022-12-19T07:19:39.899Z,55.10
2022-12-19T07:20:44.914Z,50.00
2022-12-19T07:21:39.904Z,51.60
2022-12-19T07:22:39.877Z,53.60
2022-12-19T07:23:39.873Z,50.60
2022-12-19T07:24:39.869Z,53.60
2022-12-19T07:25:39.857Z,54.20
2022-12-19T07:26:39.888Z,48.40
2022-12-19T07:27:39.843Z,48.50
2022-12-19T07:28:39.841Z,52.50
2022-12-19T07:29:39.832Z,51.10
2022-12-19T07:30:39.829Z,46.60
2022-12-19T07:31:39.831Z,46.20
2022-12-19T07:32:39.866Z,47.00
2022-12-19T07:33:39.945Z,45.00
2022-12-19T07:34:39.811Z,41.60
2022-12-19T07:35:39.783Z,42.20
2022-12-19T07:36:39.786Z,44.80
2022-12-19T07:37:39.781Z,42.40
2022-12-19T07:38:39.789Z,43.80
2022-12-19T07:39:39.756Z,44.60
2022-12-19T07:40:39.756Z,44.90
2022-12-19T07:41:39.750Z,43.30
2022-12-19T07:42:39.741Z,45.60
2022-12-19T07:43:39.759Z,41.00
2022-12-19T07:44:39.733Z,45.70
2022-12-19T07:45:39.766Z,40.40
2022-12-19T07:46:39.728Z,44.50
2022-12-19T07:47:39.705Z,44.90
2022-12-19T07:48:39.707Z,43.40
2022-12-19T07:49:39.797Z,42.20
2022-12-19T07:50:39.683Z,41.10
2022-12-19T07:51:39.681Z,46.90
2022-12-19T07:52:39.666Z,43.60
2022-12-19T07:53:39.673Z,45.70
2022-12-19T07:54:39.679Z,41.70
2022-12-19T07:55:39.680Z,44.30
2022-12-19T07:56:39.649Z,45.30
2022-12-19T07:57:39.640Z,52.30
2022-12-19T07:58:39.643Z,48.30
2022-12-19T07:59:39.702Z,43.30
2022-12-19T08:00:39.618Z,46.40
2022-12-19T08:01:39.717Z,44.80
2022-12-19T08:02:39.691Z,44.60
2022-12-19T08:03:39.616Z,45.60
2022-12-19T08:04:39.591Z,46.30
2022-12-19T08:05:39.667Z,43.90
2022-12-19T08:06:41.528Z,46.70
2022-12-19T08:07:39.569Z,44.90
2022-12-19T08:08:39.584Z,40.10
2022-12-19T08:09:39.564Z,42.90
2022-12-19T08:10:39.545Z,43.60
2022-12-19T08:11:39.565Z,45.60
2022-12-19T08:12:39.563Z,46.70
2022-12-19T08:13:44.833Z,44.60
2022-12-19T08:14:40.532Z,44.80
2022-12-19T08:15:39.539Z,46.90
2022-12-19T08:17:11.058Z,46.90
2022-12-19T08:17:40.565Z,43.30
2022-12-19T08:18:39.496Z,47.30
2022-12-19T08:19:39.558Z,46.70
2022-12-19T08:20:39.494Z,47.10
2022-12-19T08:21:39.556Z,44.00
2022-12-19T08:22:39.518Z,41.50
2022-12-19T08:23:39.479Z,48.80
2022-12-19T08:24:39.452Z,45.60
2022-12-19T08:25:39.502Z,46.20
2022-12-19T08:26:44.495Z,47.60
2022-12-19T08:27:39.452Z,44.50
2022-12-19T08:28:39.433Z,43.20
2022-12-19T08:29:39.443Z,43.90
2022-12-19T08:30:39.466Z,47.40
2022-12-19T08:31:39.474Z,37.70
2022-12-19T08:32:39.409Z,32.60
2022-12-19T08:33:39.436Z,31.80
2022-12-19T08:34:39.409Z,33.70
2022-12-19T08:35:39.420Z,29.80
2022-12-19T08:36:39.401Z,29.60
2022-12-19T08:37:39.450Z,34.40
2022-12-19T08:38:39.390Z,37.10
2022-12-19T08:39:39.392Z,37.70
2022-12-19T08:40:44.298Z,39.00
2022-12-19T08:41:40.414Z,38.60
2022-12-19T08:42:39.381Z,39.60
2022-12-19T08:43:39.339Z,39.30
2022-12-19T08:44:39.366Z,42.00
2022-12-19T08:45:39.395Z,39.30
2022-12-19T08:46:39.376Z,40.80
2022-12-19T08:47:39.361Z,40.80
2022-12-19T08:48:39.322Z,41.30
2022-12-19T08:49:39.331Z,42.70
2022-12-19T08:50:39.319Z,43.60
2022-12-19T08:51:39.358Z,40.50
2022-12-19T08:52:39.328Z,41.70
2022-12-19T08:53:39.383Z,40.30
2022-12-19T08:54:39.280Z,43.40
2022-12-19T08:55:39.293Z,41.70
2022-12-19T08:56:42.991Z,44.30
2022-12-19T08:57:39.313Z,42.30
2022-12-19T08:58:39.244Z,42.30
2022-12-19T08:59:39.254Z,43.60
2022-12-19T09:00:39.256Z,43.40
2022-12-19T09:01:39.382Z,44.90
2022-12-19T09:02:39.372Z,44.90
2022-12-19T09:03:51.307Z,45.10
2022-12-19T09:06:00.116Z,45.40
2022-12-19T09:06:05.343Z,43.60
2022-12-19T09:06:40.285Z,48.20
2022-12-19T09:07:39.205Z,45.70
2022-12-19T09:08:39.190Z,47.00
2022-12-19T09:09:39.263Z,48.50
2022-12-19T09:10:39.206Z,45.70
2022-12-19T09:11:47.379Z,47.30
2022-12-19T09:12:40.148Z,46.30
2022-12-19T09:13:39.159Z,49.30
2022-12-19T09:14:39.157Z,49.10
2022-12-19T09:15:39.149Z,46.10
2022-12-19T09:16:39.189Z,47.00
2022-12-19T09:17:39.145Z,46.50
2022-12-19T09:18:42.641Z,48.40
2022-12-19T09:19:40.125Z,47.30
2022-12-19T09:20:39.109Z,47.30
2022-12-19T09:21:39.140Z,51.70
2022-12-19T09:22:39.096Z,47.70
2022-12-19T09:23:39.096Z,50.90
2022-12-19T09:24:39.108Z,49.70
2022-12-19T09:25:39.148Z,47.50
2022-12-19T09:26:39.065Z,48.70
2022-12-19T09:28:17.537Z,51.50
2022-12-19T09:28:40.091Z,52.10
2022-12-19T09:29:39.075Z,50.50
2022-12-19T09:30:39.130Z,51.00
2022-12-19T09:31:39.072Z,51.60
2022-12-19T09:32:39.048Z,51.10
2022-12-19T09:33:43.320Z,48.00
2022-12-19T09:34:39.305Z,52.10
2022-12-19T09:35:39.025Z,48.50
2022-12-19T09:36:39.033Z,50.40
2022-12-19T09:37:39.008Z,49.40
2022-12-19T09:38:38.998Z,50.10
2022-12-19T09:39:38.986Z,50.10
2022-12-19T09:40:38.972Z,49.10
2022-12-19T09:41:39.091Z,47.20
2022-12-19T09:42:40.679Z,48.70
2022-12-19T09:43:41.384Z,46.20
2022-12-19T09:44:38.987Z,45.30
2022-12-19T09:45:38.953Z,49.00
2022-12-19T09:46:38.968Z,48.40
2022-12-19T09:47:38.960Z,48.50
2022-12-19T09:48:38.961Z,48.70
2022-12-19T09:49:41.942Z,49.50
2022-12-19T09:50:38.931Z,52.60
2022-12-19T09:51:38.911Z,45.90
2022-12-19T09:52:38.918Z,52.60
2022-12-19T09:53:38.901Z,48.80
2022-12-19T09:54:38.930Z,50.50
2022-12-19T09:55:38.889Z,46.80
2022-12-19T09:56:45.626Z,48.80
2022-12-19T09:57:39.971Z,49.70
2022-12-19T09:58:38.884Z,51.10
2022-12-19T09:59:42.790Z,49.20
2022-12-19T10:00:39.844Z,50.90
2022-12-19T10:01:38.951Z,49.90
2022-12-19T10:02:38.985Z,45.40
2022-12-19T10:03:40.536Z,47.40
2022-12-19T10:04:38.839Z,45.80
2022-12-19T10:06:41.137Z,46.80
2022-12-19T10:07:19.396Z,49.70
2022-12-19T10:08:01.839Z,48.80
2022-12-19T10:09:20.596Z,45.80
2022-12-19T10:12:16.946Z,45.60
2022-12-19T10:12:38.266Z,49.30
2022-12-19T10:12:43.072Z,47.80
2022-12-19T10:12:51.946Z,51.10
2022-12-19T10:13:39.834Z,50.60
2022-12-19T10:14:38.759Z,48.80
2022-12-19T10:15:38.822Z,50.80
2022-12-19T10:16:38.737Z,53.50
2022-12-19T10:17:38.797Z,50.30
2022-12-19T10:18:38.733Z,54.90
2022-12-19T10:19:38.730Z,55.50
2022-12-19T10:20:38.767Z,51.70
2022-12-19T10:22:08.106Z,53.30
2022-12-19T10:22:38.730Z,54.60
2022-12-19T10:23:38.692Z,48.50
2022-12-19T10:24:38.679Z,49.70
2022-12-19T10:25:38.679Z,48.90
2022-12-19T10:26:38.676Z,48.40
2022-12-19T10:27:38.668Z,50.60
2022-12-19T10:28:39.713Z,50.30
2022-12-19T10:29:38.741Z,48.60
2022-12-19T10:30:38.649Z,52.70
2022-12-19T10:31:38.718Z,50.70
2022-12-19T10:32:38.657Z,51.50
2022-12-19T10:33:38.631Z,52.70
2022-12-19T10:34:40.743Z,52.90
2022-12-19T10:35:38.614Z,49.80
2022-12-19T10:37:12.279Z,48.70
2022-12-19T10:37:45.625Z,50.20
2022-12-19T10:38:40.589Z,49.50
2022-12-19T10:39:38.609Z,47.30
2022-12-19T10:40:38.605Z,50.80
2022-12-19T10:41:44.112Z,46.90
2022-12-19T10:42:38.580Z,49.70
2022-12-19T10:43:43.989Z,47.20
2022-12-19T10:44:39.585Z,49.30
2022-12-19T10:45:38.624Z,49.20
2022-12-19T10:46:38.571Z,48.00
2022-12-19T10:47:38.552Z,47.90
2022-12-19T10:48:38.535Z,49.50
2022-12-19T10:49:38.558Z,47.50
2022-12-19T10:50:38.519Z,48.80
2022-12-19T10:51:38.531Z,47.80
2022-12-19T10:52:38.545Z,48.10
2022-12-19T10:53:38.490Z,49.00
2022-12-19T10:54:38.557Z,52.10
2022-12-19T10:55:38.512Z,49.20
2022-12-19T10:56:38.497Z,50.70
2022-12-19T10:57:38.492Z,58.10
2022-12-19T10:58:38.459Z,60.90
2022-12-19T10:59:38.523Z,58.90
2022-12-19T11:00:38.529Z,49.30
2022-12-19T11:01:38.761Z,51.40
2022-12-19T11:02:38.636Z,53.10
2022-12-19T11:03:38.454Z,51.60
2022-12-19T11:04:38.484Z,52.50
2022-12-19T11:05:38.560Z,56.50
2022-12-19T11:06:38.440Z,51.70
2022-12-19T11:07:38.431Z,50.10
2022-12-19T11:08:38.460Z,50.80
2022-12-19T11:09:38.428Z,48.80
2022-12-19T11:11:39.459Z,51.10
2022-12-19T11:14:32.044Z,52.40
2022-12-19T11:17:09.634Z,51.40
2022-12-19T11:19:50.045Z,50.30
2022-12-19T11:19:51.884Z,50.70
2022-12-19T11:20:27.355Z,47.20
2022-12-19T11:21:18.717Z,52.20
2022-12-19T11:27:03.866Z,55.50
2022-12-19T11:27:45.678Z,52.50
2022-12-19T11:29:15.952Z,48.90
2022-12-19T11:29:25.720Z,50.20
2022-12-19T11:29:40.930Z,52.00
2022-12-19T11:29:46.488Z,50.90
2022-12-19T11:29:54.826Z,51.90
2022-12-19T11:30:06.050Z,52.60
2022-12-19T11:30:38.648Z,51.90
2022-12-19T11:30:39.348Z,55.50
2022-12-19T11:30:43.544Z,57.50
2022-12-19T11:30:43.750Z,49.80
2022-12-19T11:32:42.228Z,46.80
2022-12-19T11:33:38.379Z,45.60
2022-12-19T11:34:38.216Z,49.00
2022-12-19T11:35:38.232Z,46.60
2022-12-19T11:36:38.228Z,46.90
2022-12-19T11:37:38.211Z,49.60
2022-12-19T11:38:38.193Z,62.20
2022-12-19T11:39:38.189Z,50.20
2022-12-19T11:40:43.018Z,52.00
2022-12-19T11:41:39.203Z,45.60
2022-12-19T11:42:38.196Z,45.20
2022-12-19T11:43:46.745Z,47.80
2022-12-19T11:44:39.155Z,48.40
2022-12-19T11:45:38.157Z,49.90
2022-12-19T11:46:38.151Z,51.60
2022-12-19T11:47:38.198Z,54.20
2022-12-19T11:48:38.177Z,50.40
2022-12-19T11:49:38.218Z,52.20
2022-12-19T11:50:38.130Z,51.30
2022-12-19T11:51:38.126Z,53.20
2022-12-19T11:53:03.323Z,50.80
2022-12-19T11:53:39.128Z,50.40
2022-12-19T11:54:38.096Z,47.10
2022-12-19T11:55:38.110Z,48.10
2022-12-19T11:56:38.100Z,49.10
2022-12-19T11:57:38.104Z,50.80
2022-12-19T11:58:38.078Z,50.00
2022-12-19T11:59:38.113Z,47.60
2022-12-19T12:00:38.085Z,44.70
2022-12-19T12:01:38.103Z,49.30
2022-12-19T12:02:38.052Z,47.70
2022-12-19T12:03:38.138Z,46.60
2022-12-19T12:04:38.099Z,57.00
2022-12-19T12:05:38.137Z,60.50
2022-12-19T12:06:39.912Z,53.40
2022-12-19T12:08:45.259Z,51.50
2022-12-19T12:09:41.835Z,46.70
2022-12-19T12:11:58.409Z,40.40
2022-12-19T12:13:29.472Z,49.30
2022-12-19T12:15:08.547Z,43.40
2022-12-19T12:20:33.131Z,45.00
2022-12-19T12:22:42.874Z,45.80
2022-12-19T12:24:42.968Z,48.70
2022-12-19T12:25:25.855Z,51.20
2022-12-19T12:29:14.465Z,49.10
2022-12-19T12:31:01.480Z,44.00
2022-12-19T12:31:07.885Z,49.00
2022-12-19T12:31:07.991Z,39.40
2022-12-19T12:31:08.169Z,39.20
2022-12-19T12:31:12.796Z,40.90
2022-12-19T12:31:15.792Z,44.90
2022-12-19T12:31:30.805Z,41.00
2022-12-19T12:31:39.475Z,36.40
2022-12-19T12:31:39.616Z,39.10
2022-12-19T12:31:41.755Z,40.50
2022-12-19T12:31:46.811Z,39.70
2022-12-19T12:31:47.317Z,41.20
2022-12-19T12:31:48.871Z,37.30
2022-12-19T12:31:53.907Z,39.60
2022-12-19T12:35:46.744Z,40.30
2022-12-19T12:35:47.066Z,40.90
2022-12-19T12:35:54.549Z,40.20
2022-12-19T12:38:19.055Z,40.90
2022-12-19T12:38:39.300Z,41.90
2022-12-19T12:39:37.819Z,44.60
2022-12-19T12:40:37.805Z,43.50
2022-12-19T12:41:37.795Z,43.90
2022-12-19T12:42:37.791Z,43.50
2022-12-19T12:43:37.813Z,43.70
2022-12-19T12:44:44.798Z,39.30
2022-12-19T12:45:37.826Z,39.40
2022-12-19T12:46:37.809Z,43.20
2022-12-19T12:47:37.781Z,41.20
2022-12-19T12:48:37.772Z,40.00
2022-12-19T12:49:37.744Z,41.60
2022-12-19T12:50:37.739Z,39.10
2022-12-19T12:51:37.755Z,37.70
2022-12-19T12:52:37.771Z,39.40
2022-12-19T12:53:37.723Z,42.10
2022-12-19T12:54:37.727Z,39.10
2022-12-19T12:55:37.720Z,38.90
2022-12-19T12:56:37.754Z,40.20
2022-12-19T12:57:37.707Z,37.00
2022-12-19T12:58:37.716Z,39.20